sensor_id;sensor_type;location;lat;lon;timestamp;pressure;altitude;pressure_sealevel;temperature;humidity
6524;BME280;3295;38.928;-77.052;2023-02-19T00:01:38;102161.03;;;10.11;36.53
6524;BME280;3295;38.928;-77.052;2023-02-19T00:04:08;102160.13;;;10.11;36.65
6524;BME280;3295;38.928;-77.052;2023-02-19T00:06:37;102165.00;;;10.08;37.09
6524;BME280;3295;38.928;-77.052;2023-02-19T00:09:05;102161.47;;;10.06;37.45
6524;BME280;3295;38.928;-77.052;2023-02-19T00:11:35;102177.63;;;10.06;37.43
6524;BME280;3295;38.928;-77.052;2023-02-19T00:14:04;102179.19;;;10.04;37.72
6524;BME280;3295;38.928;-77.052;2023-02-19T00:16:33;102183.38;;;10.04;37.53
6524;BME280;3295;38.928;-77.052;2023-02-19T00:19:04;102179.19;;;10.04;37.54
6524;BME280;3295;38.928;-77.052;2023-02-19T00:21:32;102176.28;;;9.99;37.38
6524;BME280;3295;38.928;-77.052;2023-02-19T00:24:02;102178.53;;;9.95;37.49
6524;BME280;3295;38.928;-77.052;2023-02-19T00:26:31;102181.84;;;9.94;37.71
6524;BME280;3295;38.928;-77.052;2023-02-19T00:29:00;102171.31;;;9.89;37.76
6524;BME280;3295;38.928;-77.052;2023-02-19T00:31:30;102184.03;;;9.89;41.09
6524;BME280;3295;38.928;-77.052;2023-02-19T00:34:00;102185.69;;;9.77;41.81
6524;BME280;3295;38.928;-77.052;2023-02-19T00:36:28;102186.94;;;9.82;39.04
6524;BME280;3295;38.928;-77.052;2023-02-19T00:38:56;102189.78;;;9.87;38.90
6524;BME280;3295;38.928;-77.052;2023-02-19T00:41:24;102190.91;;;9.90;38.18
6524;BME280;3295;38.928;-77.052;2023-02-19T00:43:54;102190.03;;;9.90;38.56
6524;BME280;3295;38.928;-77.052;2023-02-19T00:46:25;102188.47;;;9.80;38.62
6524;BME280;3295;38.928;-77.052;2023-02-19T00:48:54;102190.44;;;9.73;38.31
6524;BME280;3295;38.928;-77.052;2023-02-19T00:51:24;102186.69;;;9.68;38.85
6524;BME280;3295;38.928;-77.052;2023-02-19T00:53:53;102186.44;;;9.65;38.93
6524;BME280;3295;38.928;-77.052;2023-02-19T00:56:21;102191.75;;;9.56;43.58
6524;BME280;3295;38.928;-77.052;2023-02-19T00:58:50;102191.97;;;9.59;41.01
6524;BME280;3295;38.928;-77.052;2023-02-19T01:01:19;102198.28;;;9.64;40.11
6524;BME280;3295;38.928;-77.052;2023-02-19T01:03:48;102185.78;;;9.67;39.11
6524;BME280;3295;38.928;-77.052;2023-02-19T01:06:17;102184.66;;;9.63;39.84
6524;BME280;3295;38.928;-77.052;2023-02-19T01:08:45;102184.03;;;9.66;39.29
6524;BME280;3295;38.928;-77.052;2023-02-19T01:11:14;102192.44;;;9.65;39.72
6524;BME280;3295;38.928;-77.052;2023-02-19T01:13:42;102190.88;;;9.67;39.54
6524;BME280;3295;38.928;-77.052;2023-02-19T01:16:13;102187.22;;;9.63;39.73
6524;BME280;3295;38.928;-77.052;2023-02-19T01:18:42;102189.75;;;9.63;40.52
6524;BME280;3295;38.928;-77.052;2023-02-19T01:21:14;102190.00;;;9.67;40.28
6524;BME280;3295;38.928;-77.052;2023-02-19T01:23:43;102203.91;;;9.60;41.44
6524;BME280;3295;38.928;-77.052;2023-02-19T01:26:13;102199.03;;;9.51;41.52
6524;BME280;3295;38.928;-77.052;2023-02-19T01:28:42;102204.75;;;9.37;43.21
6524;BME280;3295;38.928;-77.052;2023-02-19T01:31:12;102207.69;;;9.32;42.81
6524;BME280;3295;38.928;-77.052;2023-02-19T01:33:43;102215.06;;;9.17;42.96
6524;BME280;3295;38.928;-77.052;2023-02-19T01:36:14;102215.91;;;9.06;44.21
6524;BME280;3295;38.928;-77.052;2023-02-19T01:38:43;102212.28;;;8.92;44.42
6524;BME280;3295;38.928;-77.052;2023-02-19T01:41:12;102205.47;;;8.81;45.01
6524;BME280;3295;38.928;-77.052;2023-02-19T01:43:57;102216.34;;;8.68;45.45
6524;BME280;3295;38.928;-77.052;2023-02-19T01:46:26;102216.06;;;8.43;45.81
6524;BME280;3295;38.928;-77.052;2023-02-19T01:48:56;102221.50;;;8.48;46.41
6524;BME280;3295;38.928;-77.052;2023-02-19T01:51:27;102212.22;;;8.48;46.63
6524;BME280;3295;38.928;-77.052;2023-02-19T01:53:59;102206.91;;;8.35;46.46
6524;BME280;3295;38.928;-77.052;2023-02-19T01:56:29;102208.19;;;8.30;46.99
6524;BME280;3295;38.928;-77.052;2023-02-19T01:58:59;102203.91;;;8.19;48.15
6524;BME280;3295;38.928;-77.052;2023-02-19T02:01:27;102201.13;;;8.16;48.20
6524;BME280;3295;38.928;-77.052;2023-02-19T02:03:55;102198.03;;;8.20;47.93
6524;BME280;3295;38.928;-77.052;2023-02-19T02:06:26;102212.50;;;8.21;47.93
6524;BME280;3295;38.928;-77.052;2023-02-19T02:08:57;102211.28;;;8.16;48.30
6524;BME280;3295;38.928;-77.052;2023-02-19T02:11:47;102203.66;;;8.16;48.25
6524;BME280;3295;38.928;-77.052;2023-02-19T02:14:15;102216.63;;;8.19;48.33
6524;BME280;3295;38.928;-77.052;2023-02-19T02:16:53;102208.34;;;8.11;47.84
6524;BME280;3295;38.928;-77.052;2023-02-19T02:19:34;102197.31;;;8.11;48.40
6524;BME280;3295;38.928;-77.052;2023-02-19T02:22:16;102188.31;;;8.04;49.11
6524;BME280;3295;38.928;-77.052;2023-02-19T02:25:07;102179.78;;;7.94;49.17
6524;BME280;3295;38.928;-77.052;2023-02-19T02:27:55;102172.44;;;7.97;49.46
6524;BME280;3295;38.928;-77.052;2023-02-19T02:30:37;102176.25;;;7.81;49.72
6524;BME280;3295;38.928;-77.052;2023-02-19T02:33:12;102166.88;;;7.80;50.38
6524;BME280;3295;38.928;-77.052;2023-02-19T02:35:47;102168.78;;;7.83;50.07
6524;BME280;3295;38.928;-77.052;2023-02-19T02:38:17;102169.19;;;7.77;49.36
6524;BME280;3295;38.928;-77.052;2023-02-19T02:40:47;102180.59;;;7.72;49.83
6524;BME280;3295;38.928;-77.052;2023-02-19T02:43:15;102175.81;;;7.65;50.06
6524;BME280;3295;38.928;-77.052;2023-02-19T02:45:44;102172.75;;;7.59;51.52
6524;BME280;3295;38.928;-77.052;2023-02-19T02:48:33;102177.44;;;7.44;52.53
6524;BME280;3295;38.928;-77.052;2023-02-19T02:51:07;102181.75;;;7.35;52.77
6524;BME280;3295;38.928;-77.052;2023-02-19T02:53:40;102176.06;;;7.38;53.14
6524;BME280;3295;38.928;-77.052;2023-02-19T02:56:28;102190.00;;;7.33;52.61
6524;BME280;3295;38.928;-77.052;2023-02-19T02:58:57;102195.56;;;7.29;52.61
6524;BME280;3295;38.928;-77.052;2023-02-19T03:01:31;102196.19;;;7.26;53.77
6524;BME280;3295;38.928;-77.052;2023-02-19T03:04:22;102202.03;;;7.25;53.24
6524;BME280;3295;38.928;-77.052;2023-02-19T03:06:51;102199.38;;;7.24;53.18
6524;BME280;3295;38.928;-77.052;2023-02-19T03:09:24;102195.28;;;7.16;52.97
6524;BME280;3295;38.928;-77.052;2023-02-19T03:11:57;102190.47;;;7.08;53.16
6524;BME280;3295;38.928;-77.052;2023-02-19T03:14:45;102170.91;;;6.97;53.66
6524;BME280;3295;38.928;-77.052;2023-02-19T03:17:36;102168.88;;;6.93;54.49
6524;BME280;3295;38.928;-77.052;2023-02-19T03:20:23;102169.91;;;6.95;55.34
6524;BME280;3295;38.928;-77.052;2023-02-19T03:22:52;102170.91;;;6.97;56.19
6524;BME280;3295;38.928;-77.052;2023-02-19T03:25:25;102176.28;;;7.10;55.65
6524;BME280;3295;38.928;-77.052;2023-02-19T03:28:13;102168.41;;;7.07;55.21
6524;BME280;3295;38.928;-77.052;2023-02-19T03:30:46;102167.78;;;7.10;54.49
6524;BME280;3295;38.928;-77.052;2023-02-19T03:33:22;102167.50;;;7.07;54.31
6524;BME280;3295;38.928;-77.052;2023-02-19T03:35:54;102159.50;;;7.02;54.36
6524;BME280;3295;38.928;-77.052;2023-02-19T03:38:26;102164.31;;;6.99;54.17
6524;BME280;3295;38.928;-77.052;2023-02-19T03:41:01;102154.66;;;6.85;54.53
6524;BME280;3295;38.928;-77.052;2023-02-19T03:43:36;102149.56;;;6.85;54.84
6524;BME280;3295;38.928;-77.052;2023-02-19T03:46:08;102150.31;;;6.84;55.19
6524;BME280;3295;38.928;-77.052;2023-02-19T03:48:45;102162.25;;;6.85;55.70
6524;BME280;3295;38.928;-77.052;2023-02-19T03:51:26;102164.44;;;6.91;55.75
6524;BME280;3295;38.928;-77.052;2023-02-19T03:54:05;102159.63;;;6.94;55.42
6524;BME280;3295;38.928;-77.052;2023-02-19T03:56:38;102171.16;;;6.90;55.03
6524;BME280;3295;38.928;-77.052;2023-02-19T03:59:14;102176.97;;;6.89;55.33
6524;BME280;3295;38.928;-77.052;2023-02-19T04:01:46;102173.69;;;6.90;55.94
6524;BME280;3295;38.928;-77.052;2023-02-19T04:04:20;102179.91;;;6.94;57.56
6524;BME280;3295;38.928;-77.052;2023-02-19T04:06:53;102183.09;;;7.01;57.19
6524;BME280;3295;38.928;-77.052;2023-02-19T04:09:24;102178.56;;;7.07;57.38
6524;BME280;3295;38.928;-77.052;2023-02-19T04:11:53;102183.91;;;7.10;57.35
6524;BME280;3295;38.928;-77.052;2023-02-19T04:14:25;102172.19;;;7.12;57.33
6524;BME280;3295;38.928;-77.052;2023-02-19T04:16:58;102171.69;;;7.06;56.40
6524;BME280;3295;38.928;-77.052;2023-02-19T04:19:32;102175.47;;;7.01;57.57
6524;BME280;3295;38.928;-77.052;2023-02-19T04:22:03;102177.94;;;7.10;57.78
6524;BME280;3295;38.928;-77.052;2023-02-19T04:24:35;102171.22;;;7.21;57.21
6524;BME280;3295;38.928;-77.052;2023-02-19T04:27:04;102177.56;;;7.36;54.90
6524;BME280;3295;38.928;-77.052;2023-02-19T04:29:33;102181.38;;;7.41;54.90
6524;BME280;3295;38.928;-77.052;2023-02-19T04:32:00;102185.19;;;7.46;55.04
6524;BME280;3295;38.928;-77.052;2023-02-19T04:34:30;102188.22;;;7.52;54.33
6524;BME280;3295;38.928;-77.052;2023-02-19T04:36:58;102183.16;;;7.62;53.59
6524;BME280;3295;38.928;-77.052;2023-02-19T04:39:26;102174.25;;;7.67;53.22
6524;BME280;3295;38.928;-77.052;2023-02-19T04:41:54;102175.03;;;7.76;54.13
6524;BME280;3295;38.928;-77.052;2023-02-19T04:44:22;102158.50;;;7.71;52.91
6524;BME280;3295;38.928;-77.052;2023-02-19T04:46:49;102158.13;;;7.77;52.78
6524;BME280;3295;38.928;-77.052;2023-02-19T04:49:17;102155.72;;;7.78;52.40
6524;BME280;3295;38.928;-77.052;2023-02-19T04:51:46;102147.09;;;7.76;51.64
6524;BME280;3295;38.928;-77.052;2023-02-19T04:54:14;102155.72;;;7.78;52.02
6524;BME280;3295;38.928;-77.052;2023-02-19T04:56:42;102152.91;;;7.85;51.80
6524;BME280;3295;38.928;-77.052;2023-02-19T04:59:11;102149.84;;;7.90;51.78
6524;BME280;3295;38.928;-77.052;2023-02-19T05:01:42;102150.06;;;7.93;51.45
6524;BME280;3295;38.928;-77.052;2023-02-19T05:04:15;102145.38;;;7.97;51.18
6524;BME280;3295;38.928;-77.052;2023-02-19T05:06:43;102151.59;;;8.01;51.25
6524;BME280;3295;38.928;-77.052;2023-02-19T05:09:13;102155.66;;;7.99;51.66
6524;BME280;3295;38.928;-77.052;2023-02-19T05:11:41;102155.91;;;8.02;51.45
6524;BME280;3295;38.928;-77.052;2023-02-19T05:14:09;102161.25;;;8.05;51.35
6524;BME280;3295;38.928;-77.052;2023-02-19T05:16:37;102169.84;;;8.07;51.25
6524;BME280;3295;38.928;-77.052;2023-02-19T05:19:04;102160.19;;;8.13;50.91
6524;BME280;3295;38.928;-77.052;2023-02-19T05:21:32;102167.31;;;8.17;50.49
6524;BME280;3295;38.928;-77.052;2023-02-19T05:24:00;102164.22;;;8.21;50.88
6524;BME280;3295;38.928;-77.052;2023-02-19T05:26:30;102163.59;;;8.24;50.52
6524;BME280;3295;38.928;-77.052;2023-02-19T05:28:58;102157.63;;;8.23;50.59
6524;BME280;3295;38.928;-77.052;2023-02-19T05:31:26;102163.84;;;8.27;50.78
6524;BME280;3295;38.928;-77.052;2023-02-19T05:33:54;102166.00;;;8.22;50.48
6524;BME280;3295;38.928;-77.052;2023-02-19T05:36:22;102157.78;;;8.14;50.54
6524;BME280;3295;38.928;-77.052;2023-02-19T05:38:52;102158.94;;;8.08;50.81
6524;BME280;3295;38.928;-77.052;2023-02-19T05:41:21;102173.41;;;8.09;50.88
6524;BME280;3295;38.928;-77.052;2023-02-19T05:43:52;102178.75;;;8.12;51.03
6524;BME280;3295;38.928;-77.052;2023-02-19T05:46:22;102177.22;;;8.14;50.78
6524;BME280;3295;38.928;-77.052;2023-02-19T05:48:51;102178.25;;;8.16;50.67
6524;BME280;3295;38.928;-77.052;2023-02-19T05:51:20;102181.94;;;8.19;50.58
6524;BME280;3295;38.928;-77.052;2023-02-19T05:53:49;102181.66;;;8.16;50.79
6524;BME280;3295;38.928;-77.052;2023-02-19T05:56:23;102176.59;;;8.16;50.71
6524;BME280;3295;38.928;-77.052;2023-02-19T05:58:55;102168.34;;;8.09;50.59
6524;BME280;3295;38.928;-77.052;2023-02-19T06:01:26;102164.78;;;8.07;50.44
6524;BME280;3295;38.928;-77.052;2023-02-19T06:03:54;102162.00;;;8.04;50.53
6524;BME280;3295;38.928;-77.052;2023-02-19T06:06:22;102154.91;;;8.00;51.16
6524;BME280;3295;38.928;-77.052;2023-02-19T06:08:50;102158.22;;;7.99;51.32
6524;BME280;3295;38.928;-77.052;2023-02-19T06:11:18;102157.47;;;7.90;51.68
6524;BME280;3295;38.928;-77.052;2023-02-19T06:13:46;102163.78;;;7.95;51.52
6524;BME280;3295;38.928;-77.052;2023-02-19T06:16:17;102161.25;;;8.05;51.13
6524;BME280;3295;38.928;-77.052;2023-02-19T06:18:46;102159.06;;;8.09;51.05
6524;BME280;3295;38.928;-77.052;2023-02-19T06:21:15;102155.88;;;8.12;51.06
6524;BME280;3295;38.928;-77.052;2023-02-19T06:23:44;102154.59;;;8.17;50.81
6524;BME280;3295;38.928;-77.052;2023-02-19T06:26:13;102160.91;;;8.22;50.83
6524;BME280;3295;38.928;-77.052;2023-02-19T06:28:43;102159.16;;;8.21;50.80
6524;BME280;3295;38.928;-77.052;2023-02-19T06:31:11;102157.38;;;8.20;50.99
6524;BME280;3295;38.928;-77.052;2023-02-19T06:33:41;102158.44;;;8.12;51.40
6524;BME280;3295;38.928;-77.052;2023-02-19T06:36:11;102150.81;;;8.12;50.81
6524;BME280;3295;38.928;-77.052;2023-02-19T06:38:39;102147.38;;;8.11;51.03
6524;BME280;3295;38.928;-77.052;2023-02-19T06:41:07;102150.03;;;8.13;51.13
6524;BME280;3295;38.928;-77.052;2023-02-19T06:43:35;102142.78;;;8.17;51.02
6524;BME280;3295;38.928;-77.052;2023-02-19T06:46:04;102138.81;;;8.21;50.96
6524;BME280;3295;38.928;-77.052;2023-02-19T06:48:33;102133.84;;;8.23;50.66
6524;BME280;3295;38.928;-77.052;2023-02-19T06:51:02;102121.56;;;8.17;50.65
6524;BME280;3295;38.928;-77.052;2023-02-19T06:53:30;102112.69;;;8.12;51.01
6524;BME280;3295;38.928;-77.052;2023-02-19T06:55:59;102108.88;;;8.07;50.60
6524;BME280;3295;38.928;-77.052;2023-02-19T06:58:27;102118.16;;;8.06;50.93
6524;BME280;3295;38.928;-77.052;2023-02-19T07:00:55;102118.31;;;7.98;51.67
6524;BME280;3295;38.928;-77.052;2023-02-19T07:03:23;102110.75;;;7.88;51.49
6524;BME280;3295;38.928;-77.052;2023-02-19T07:05:52;102124.41;;;8.00;51.55
6524;BME280;3295;38.928;-77.052;2023-02-19T07:08:21;102121.59;;;8.07;51.42
6524;BME280;3295;38.928;-77.052;2023-02-19T07:10:56;102115.03;;;7.99;51.35
6524;BME280;3295;38.928;-77.052;2023-02-19T07:13:25;102117.28;;;8.06;51.15
6524;BME280;3295;38.928;-77.052;2023-02-19T07:15:58;102123.34;;;8.18;51.79
6524;BME280;3295;38.928;-77.052;2023-02-19T07:18:26;102125.34;;;8.22;51.27
6524;BME280;3295;38.928;-77.052;2023-02-19T07:20:53;102118.66;;;8.12;50.75
6524;BME280;3295;38.928;-77.052;2023-02-19T07:23:23;102117.72;;;8.22;50.63
6524;BME280;3295;38.928;-77.052;2023-02-19T07:25:53;102115.44;;;8.25;50.88
6524;BME280;3295;38.928;-77.052;2023-02-19T07:28:20;102111.63;;;8.20;51.44
6524;BME280;3295;38.928;-77.052;2023-02-19T07:30:48;102117.38;;;8.17;50.62
6524;BME280;3295;38.928;-77.052;2023-02-19T07:33:16;102116.50;;;8.17;50.95
6524;BME280;3295;38.928;-77.052;2023-02-19T07:35:45;102117.25;;;8.16;50.76
6524;BME280;3295;38.928;-77.052;2023-02-19T07:38:15;102117.50;;;8.19;50.76
6524;BME280;3295;38.928;-77.052;2023-02-19T07:40:51;102112.94;;;8.15;50.81
6524;BME280;3295;38.928;-77.052;2023-02-19T07:43:19;102104.28;;;8.13;50.36
6524;BME280;3295;38.928;-77.052;2023-02-19T07:45:47;102098.97;;;8.10;50.70
6524;BME280;3295;38.928;-77.052;2023-02-19T07:48:15;102090.88;;;8.04;50.66
6524;BME280;3295;38.928;-77.052;2023-02-19T07:50:50;102098.97;;;8.10;50.71
6524;BME280;3295;38.928;-77.052;2023-02-19T07:53:18;102104.81;;;8.09;50.66
6524;BME280;3295;38.928;-77.052;2023-02-19T07:55:46;102098.72;;;8.07;50.94
6524;BME280;3295;38.928;-77.052;2023-02-19T07:58:16;102097.59;;;8.03;50.50
6524;BME280;3295;38.928;-77.052;2023-02-19T08:00:44;102088.59;;;7.97;50.90
6524;BME280;3295;38.928;-77.052;2023-02-19T08:03:12;102107.41;;;7.99;50.58
6524;BME280;3295;38.928;-77.052;2023-02-19T08:05:40;102118.44;;;7.99;51.02
6524;BME280;3295;38.928;-77.052;2023-02-19T08:08:10;102104.34;;;8.03;50.79
6524;BME280;3295;38.928;-77.052;2023-02-19T08:10:38;102111.31;;;8.05;50.90
6524;BME280;3295;38.928;-77.052;2023-02-19T08:13:25;102106.88;;;8.03;50.28
6524;BME280;3295;38.928;-77.052;2023-02-19T08:15:54;102110.19;;;8.02;50.30
6524;BME280;3295;38.928;-77.052;2023-02-19T08:18:24;102107.13;;;8.06;50.52
6524;BME280;3295;38.928;-77.052;2023-02-19T08:20:53;102107.13;;;8.06;50.45
6524;BME280;3295;38.928;-77.052;2023-02-19T08:23:22;102102.91;;;8.06;50.42
6524;BME280;3295;38.928;-77.052;2023-02-19T08:25:51;102102.28;;;8.09;50.13
6524;BME280;3295;38.928;-77.052;2023-02-19T08:28:19;102092.34;;;8.12;50.37
6524;BME280;3295;38.928;-77.052;2023-02-19T08:30:49;102073.81;;;8.13;50.01
6524;BME280;3295;38.928;-77.052;2023-02-19T08:33:18;102077.09;;;8.12;49.77
6524;BME280;3295;38.928;-77.052;2023-02-19T08:35:46;102074.88;;;8.05;50.04
6524;BME280;3295;38.928;-77.052;2023-02-19T08:38:14;102085.25;;;8.08;50.14
6524;BME280;3295;38.928;-77.052;2023-02-19T08:40:42;102061.88;;;8.12;49.78
6524;BME280;3295;38.928;-77.052;2023-02-19T08:43:11;102086.50;;;8.13;50.11
6524;BME280;3295;38.928;-77.052;2023-02-19T08:45:41;102092.34;;;8.12;50.49
6524;BME280;3295;38.928;-77.052;2023-02-19T08:48:11;102077.03;;;8.00;51.33
6524;BME280;3295;38.928;-77.052;2023-02-19T08:50:39;102052.41;;;7.99;50.51
6524;BME280;3295;38.928;-77.052;2023-02-19T08:53:07;102047.19;;;7.98;50.30
6524;BME280;3295;38.928;-77.052;2023-02-19T08:55:36;102034.38;;;7.96;50.38
6524;BME280;3295;38.928;-77.052;2023-02-19T08:58:05;102047.19;;;7.98;50.71
6524;BME280;3295;38.928;-77.052;2023-02-19T09:00:33;102074.38;;;7.99;50.79
6524;BME280;3295;38.928;-77.052;2023-02-19T09:03:00;102074.13;;;7.96;50.81
6524;BME280;3295;38.928;-77.052;2023-02-19T09:05:30;102083.25;;;8.04;50.67
6524;BME280;3295;38.928;-77.052;2023-02-19T09:07:57;102100.38;;;8.06;50.22
6524;BME280;3295;38.928;-77.052;2023-02-19T09:10:25;102091.88;;;8.06;50.19
6524;BME280;3295;38.928;-77.052;2023-02-19T09:12:53;102070.75;;;8.07;50.42
6524;BME280;3295;38.928;-77.052;2023-02-19T09:15:21;102010.47;;;8.04;50.08
6524;BME280;3295;38.928;-77.052;2023-02-19T09:17:51;102018.22;;;7.96;50.56
6524;BME280;3295;38.928;-77.052;2023-02-19T09:20:19;102025.50;;;7.91;52.69
6524;BME280;3295;38.928;-77.052;2023-02-19T09:22:48;102017.00;;;7.91;52.01
6524;BME280;3295;38.928;-77.052;2023-02-19T09:25:16;102031.16;;;7.77;51.29
6524;BME280;3295;38.928;-77.052;2023-02-19T09:27:44;102040.91;;;7.82;51.84
6524;BME280;3295;38.928;-77.052;2023-02-19T09:30:12;102026.28;;;7.90;51.17
6524;BME280;3295;38.928;-77.052;2023-02-19T09:32:40;102006.59;;;7.88;50.63
6524;BME280;3295;38.928;-77.052;2023-02-19T09:35:07;101990.66;;;7.68;51.54
6524;BME280;3295;38.928;-77.052;2023-02-19T09:37:35;101996.88;;;7.72;51.26
6524;BME280;3295;38.928;-77.052;2023-02-19T09:40:05;102013.59;;;7.80;51.79
6524;BME280;3295;38.928;-77.052;2023-02-19T09:42:33;102014.47;;;7.91;51.86
6524;BME280;3295;38.928;-77.052;2023-02-19T09:45:04;102014.94;;;7.97;51.83
6524;BME280;3295;38.928;-77.052;2023-02-19T09:47:32;102028.88;;;8.02;51.25
6524;BME280;3295;38.928;-77.052;2023-02-19T09:50:05;102007.03;;;8.04;50.88
6524;BME280;3295;38.928;-77.052;2023-02-19T09:52:37;101991.31;;;7.98;51.78
6524;BME280;3295;38.928;-77.052;2023-02-19T09:55:14;102004.53;;;7.94;53.59
6524;BME280;3295;38.928;-77.052;2023-02-19T09:57:44;102027.94;;;7.90;52.83
6524;BME280;3295;38.928;-77.052;2023-02-19T10:00:20;102011.16;;;7.92;51.84
6524;BME280;3295;38.928;-77.052;2023-02-19T10:02:51;102019.13;;;7.96;51.44
6524;BME280;3295;38.928;-77.052;2023-02-19T10:05:20;102020.53;;;7.93;51.35
6524;BME280;3295;38.928;-77.052;2023-02-19T10:07:52;102010.91;;;7.89;51.02
6524;BME280;3295;38.928;-77.052;2023-02-19T10:10:26;102003.53;;;7.92;51.15
6524;BME280;3295;38.928;-77.052;2023-02-19T10:13:00;102011.16;;;7.92;51.38
6524;BME280;3295;38.928;-77.052;2023-02-19T10:15:40;102003.75;;;7.95;51.29
6524;BME280;3295;38.928;-77.052;2023-02-19T10:18:12;102011.75;;;7.99;51.30
6524;BME280;3295;38.928;-77.052;2023-02-19T10:20:42;102026.88;;;7.98;51.70
6524;BME280;3295;38.928;-77.052;2023-02-19T10:23:13;102012.13;;;8.04;51.11
6524;BME280;3295;38.928;-77.052;2023-02-19T10:25:46;101995.09;;;8.03;51.19
6524;BME280;3295;38.928;-77.052;2023-02-19T10:28:16;102009.09;;;7.98;51.41
6524;BME280;3295;38.928;-77.052;2023-02-19T10:30:47;102013.03;;;7.94;51.95
6524;BME280;3295;38.928;-77.052;2023-02-19T10:33:16;102004.31;;;7.91;52.27
6524;BME280;3295;38.928;-77.052;2023-02-19T10:35:55;102019.25;;;7.98;52.08
6524;BME280;3295;38.928;-77.052;2023-02-19T10:38:26;102016.06;;;8.00;52.28
6524;BME280;3295;38.928;-77.052;2023-02-19T10:41:00;102029.13;;;8.05;52.41
6524;BME280;3295;38.928;-77.052;2023-02-19T10:43:30;102010.84;;;7.99;52.92
6524;BME280;3295;38.928;-77.052;2023-02-19T10:46:02;102010.34;;;8.03;53.32
6524;BME280;3295;38.928;-77.052;2023-02-19T10:48:34;101993.31;;;8.02;52.72
6524;BME280;3295;38.928;-77.052;2023-02-19T10:51:06;102009.84;;;7.97;52.51
6524;BME280;3295;38.928;-77.052;2023-02-19T10:53:39;101999.94;;;8.00;52.91
6524;BME280;3295;38.928;-77.052;2023-02-19T10:56:11;102006.16;;;8.03;52.58
6524;BME280;3295;38.928;-77.052;2023-02-19T10:58:41;102029.78;;;8.02;53.05
6524;BME280;3295;38.928;-77.052;2023-02-19T11:01:12;102035.75;;;8.03;53.11
6524;BME280;3295;38.928;-77.052;2023-02-19T11:03:40;102039.69;;;7.99;53.89
6524;BME280;3295;38.928;-77.052;2023-02-19T11:06:10;102029.78;;;8.02;54.45
6524;BME280;3295;38.928;-77.052;2023-02-19T11:08:55;101962.34;;;7.96;53.61
6524;BME280;3295;38.928;-77.052;2023-02-19T11:11:29;101968.97;;;7.94;54.63
6524;BME280;3295;38.928;-77.052;2023-02-19T11:13:59;101992.13;;;7.87;55.08
6524;BME280;3295;38.928;-77.052;2023-02-19T11:16:38;102004.06;;;7.88;54.22
6524;BME280;3295;38.928;-77.052;2023-02-19T11:19:22;102019.41;;;7.89;54.36
6524;BME280;3295;38.928;-77.052;2023-02-19T11:21:51;102008.88;;;7.84;54.48
6524;BME280;3295;38.928;-77.052;2023-02-19T11:24:27;101986.53;;;7.80;54.53
6524;BME280;3295;38.928;-77.052;2023-02-19T11:26:57;101985.56;;;7.78;54.34
6524;BME280;3295;38.928;-77.052;2023-02-19T11:29:25;101959.38;;;7.79;54.47
6524;BME280;3295;38.928;-77.052;2023-02-19T11:32:26;101997.47;;;7.79;54.60
6524;BME280;3295;38.928;-77.052;2023-02-19T11:35:14;102004.63;;;7.73;54.30
6524;BME280;3295;38.928;-77.052;2023-02-19T11:37:56;101994.38;;;7.62;54.11
6524;BME280;3295;38.928;-77.052;2023-02-19T11:40:36;101972.13;;;7.69;54.63
6524;BME280;3295;38.928;-77.052;2023-02-19T11:43:28;102019.84;;;7.73;54.28
6524;BME280;3295;38.928;-77.052;2023-02-19T11:46:02;102036.75;;;7.73;54.52
6524;BME280;3295;38.928;-77.052;2023-02-19T11:48:41;102040.63;;;7.79;54.42
6524;BME280;3295;38.928;-77.052;2023-02-19T11:51:20;102012.44;;;7.87;54.37
6524;BME280;3295;38.928;-77.052;2023-02-19T11:54:03;102014.22;;;7.88;53.64
6524;BME280;3295;38.928;-77.052;2023-02-19T11:56:35;102024.38;;;7.88;53.81
6524;BME280;3295;38.928;-77.052;2023-02-19T11:59:14;102014.22;;;7.88;54.06
6524;BME280;3295;38.928;-77.052;2023-02-19T12:02:01;102018.78;;;7.81;54.11
6524;BME280;3295;38.928;-77.052;2023-02-19T12:04:48;102017.28;;;7.83;54.16
6524;BME280;3295;38.928;-77.052;2023-02-19T12:07:29;102020.81;;;7.85;53.89
6524;BME280;3295;38.928;-77.052;2023-02-19T12:10:07;102014.00;;;7.74;53.90
6524;BME280;3295;38.928;-77.052;2023-02-19T12:12:50;102011.63;;;7.66;54.48
6524;BME280;3295;38.928;-77.052;2023-02-19T12:15:44;102026.47;;;7.71;54.64
6524;BME280;3295;38.928;-77.052;2023-02-19T12:18:41;101993.19;;;7.68;54.85
6524;BME280;3295;38.928;-77.052;2023-02-19T12:21:37;101983.94;;;7.69;54.67
6524;BME280;3295;38.928;-77.052;2023-02-19T12:24:39;101996.00;;;7.71;54.95
6524;BME280;3295;38.928;-77.052;2023-02-19T12:27:19;102019.47;;;7.69;55.36
6524;BME280;3295;38.928;-77.052;2023-02-19T12:30:14;102013.88;;;7.73;54.91
6524;BME280;3295;38.928;-77.052;2023-02-19T12:36:11;102010.72;;;7.75;55.22
6524;BME280;3295;38.928;-77.052;2023-02-19T12:38:44;102000.00;;;7.79;54.74
6524;BME280;3295;38.928;-77.052;2023-02-19T12:41:23;102025.91;;;7.85;54.97
6524;BME280;3295;38.928;-77.052;2023-02-19T12:43:57;101999.75;;;7.87;54.65
6524;BME280;3295;38.928;-77.052;2023-02-19T12:46:30;101990.84;;;7.92;54.19
6524;BME280;3295;38.928;-77.052;2023-02-19T12:49:04;101947.53;;;7.90;54.06
6524;BME280;3295;38.928;-77.052;2023-02-19T12:51:40;101912.09;;;7.92;54.42
6524;BME280;3295;38.928;-77.052;2023-02-19T12:54:13;101904.81;;;7.96;55.51
6524;BME280;3295;38.928;-77.052;2023-02-19T12:56:47;101903.16;;;7.97;55.01
6524;BME280;3295;38.928;-77.052;2023-02-19T12:59:21;101938.97;;;8.00;54.03
6524;BME280;3295;38.928;-77.052;2023-02-19T13:01:55;101941.19;;;8.07;54.09
6524;BME280;3295;38.928;-77.052;2023-02-19T13:04:31;101961.00;;;8.11;53.84
6524;BME280;3295;38.928;-77.052;2023-02-19T13:07:37;101966.00;;;8.21;53.24
6524;BME280;3295;38.928;-77.052;2023-02-19T13:10:25;101989.56;;;8.18;53.41
6524;BME280;3295;38.928;-77.052;2023-02-19T13:12:57;101987.91;;;8.19;53.56
6524;BME280;3295;38.928;-77.052;2023-02-19T13:15:32;101962.13;;;8.14;53.26
6524;BME280;3295;38.928;-77.052;2023-02-19T13:18:03;102002.91;;;8.16;53.39
6524;BME280;3295;38.928;-77.052;2023-02-19T13:20:34;102030.97;;;8.17;53.44
6524;BME280;3295;38.928;-77.052;2023-02-19T13:23:10;102006.44;;;8.18;53.08
6524;BME280;3295;38.928;-77.052;2023-02-19T13:26:08;102024.63;;;8.12;53.03
6524;BME280;3295;38.928;-77.052;2023-02-19T13:28:54;102035.94;;;8.16;52.94
6524;BME280;3295;38.928;-77.052;2023-02-19T13:31:47;102043.00;;;8.20;53.40